Time;durP1;ratioP1;P1;durP2;ratioP2;P2;SDS_P1;SDS_P2;PMS_P1;PMS_P2;Temp;Humidity;BMP_temperature;BMP_pressure;BME280_temperature;BME280_humidity;BME280_pressure;Samples;Min_cycle;Max_cycle;Signal;HPM_P1;HPM_P2
2021/01/29 00:00:58;;;;;;;56.87;25.20;;;;;;;;;;5045557;28;20209;-70
2021/01/29 00:03:23;;;;;;;51.33;24.77;;;;;;;;;;5038119;28;20178;-70
2021/01/29 00:05:54;;;;;;;54.60;26.27;;;;;;;;;;5046385;28;20290;-70
2021/01/29 00:08:21;;;;;;;52.10;25.57;;;;;;;;;;5045178;28;20252;-70
2021/01/29 00:10:47;;;;;;;51.47;26.00;;;;;;;;;;5033551;28;20209;-70
2021/01/29 00:13:14;;;;;;;55.03;25.37;;;;;;;;;;5041723;28;20220;-70
2021/01/29 00:15:41;;;;;;;52.03;25.43;;;;;;;;;;5036474;28;20238;-70
2021/01/29 00:18:07;;;;;;;54.50;25.43;;;;;;;;;;5048751;28;20192;-71
2021/01/29 00:20:33;;;;;;;54.73;25.13;;;;;;;;;;5039164;28;20620;-70
2021/01/29 00:22:58;;;;;;;54.57;25.93;;;;;;;;;;5043539;28;20272;-70
2021/01/29 00:25:30;;;;;;;56.57;25.77;;;;;;;;;;5038171;28;20193;-70
2021/01/29 00:27:56;;;;;;;52.53;25.70;;;;;;;;;;5045591;28;20189;-70
2021/01/29 00:30:23;;;;;;;53.50;25.47;;;;;;;;;;5037523;28;20185;-70
2021/01/29 00:32:49;;;;;;;57.50;26.87;;;;;;;;;;5048082;28;20602;-70
2021/01/29 00:35:15;;;;;;;53.30;25.97;;;;;;;;;;5039566;28;20212;-70
2021/01/29 00:37:41;;;;;;;54.30;26.27;;;;;;;;;;5041369;28;20579;-70
2021/01/29 00:40:08;;;;;;;52.57;26.27;;;;;;;;;;5039413;28;20237;-70
2021/01/29 00:42:34;;;;;;;53.00;26.27;;;;;;;;;;5044920;28;20190;-70
2021/01/29 00:45:00;;;;;;;52.87;25.53;;;;;;;;;;5044532;28;20208;-70
2021/01/29 00:47:25;;;;;;;56.77;26.37;;;;;;;;;;5032692;28;20197;-70
2021/01/29 00:49:51;;;;;;;55.50;26.70;;;;;;;;;;5049782;28;20182;-70
2021/01/29 00:52:16;;;;;;;53.23;25.27;;;;;;;;;;5036514;28;20189;-70
2021/01/29 00:54:41;;;;;;;55.83;26.43;;;;;;;;;;5045789;28;20611;-71
2021/01/29 00:57:08;;;;;;;54.93;25.50;;;;;;;;;;5033508;28;20530;-70
2021/01/29 00:59:33;;;;;;;52.87;25.80;;;;;;;;;;5048971;28;20684;-70
2021/01/29 01:01:59;;;;;;;54.67;26.03;;;;;;;;;;5037347;28;20186;-70
2021/01/29 01:04:24;;;;;;;51.10;25.17;;;;;;;;;;5046644;28;20200;-70
2021/01/29 01:06:49;;;;;;;52.60;25.70;;;;;;;;;;5037538;28;20209;-71
2021/01/29 01:09:18;;;;;;;53.57;25.20;;;;;;;;;;5044748;28;20189;-70
2021/01/29 01:11:43;;;;;;;54.50;26.37;;;;;;;;;;5036507;28;20196;-71
2021/01/29 01:14:08;;;;;;;53.97;25.43;;;;;;;;;;5047091;28;20185;-70
2021/01/29 01:16:33;;;;;;;54.03;25.33;;;;;;;;;;5044637;28;20276;-71
2021/01/29 01:18:59;;;;;;;48.57;23.87;;;;;;;;;;5037580;28;20185;-71
2021/01/29 01:21:24;;;;;;;53.30;25.17;;;;;;;;;;5044108;28;20309;-71
2021/01/29 01:23:50;;;;;;;53.73;25.37;;;;;;;;;;5036492;28;20614;-71
2021/01/29 01:26:15;;;;;;;53.27;26.23;;;;;;;;;;5048461;28;20193;-71
2021/01/29 01:28:40;;;;;;;54.40;25.70;;;;;;;;;;5039675;28;20239;-71
2021/01/29 01:31:06;;;;;;;53.10;24.37;;;;;;;;;;5046458;28;20169;-71
2021/01/29 01:33:31;;;;;;;49.63;24.33;;;;;;;;;;5036613;28;20190;-70
2021/01/29 01:35:56;;;;;;;53.43;25.33;;;;;;;;;;5047864;28;20275;-70
2021/01/29 01:38:21;;;;;;;54.70;25.33;;;;;;;;;;5045981;28;20196;-70
2021/01/29 01:40:47;;;;;;;51.03;25.70;;;;;;;;;;5048299;28;20328;-71
2021/01/29 01:43:13;;;;;;;49.03;23.20;;;;;;;;;;5048427;28;20205;-71
2021/01/29 01:45:57;;;;;;;54.60;25.23;;;;;;;;;;5047348;28;20235;-71
2021/01/29 01:48:48;;;;;;;51.40;25.43;;;;;;;;;;5047414;28;20236;-71
2021/01/29 01:51:42;;;;;;;50.87;24.93;;;;;;;;;;5045135;28;20598;-70
2021/01/29 01:54:36;;;;;;;51.17;24.00;;;;;;;;;;5039823;28;20243;-70
2021/01/29 01:57:03;;;;;;;50.40;24.20;;;;;;;;;;5049493;28;20185;-71
2021/01/29 01:59:37;;;;;;;49.50;24.37;;;;;;;;;;5040335;28;20559;-71
2021/01/29 02:02:04;;;;;;;45.93;23.63;;;;;;;;;;5045439;28;20189;-71
2021/01/29 02:04:32;;;;;;;50.57;23.90;;;;;;;;;;5040097;28;20587;-70
2021/01/29 02:07:22;;;;;;;50.80;24.10;;;;;;;;;;5054928;28;20659;-70
2021/01/29 02:09:49;;;;;;;47.07;23.90;;;;;;;;;;5036281;28;20181;-70
2021/01/29 02:12:17;;;;;;;48.20;24.50;;;;;;;;;;5050930;28;20589;-70
2021/01/29 02:14:42;;;;;;;49.13;24.10;;;;;;;;;;5039484;28;20247;-70
2021/01/29 02:17:32;;;;;;;47.73;24.10;;;;;;;;;;5045754;28;20597;-70
2021/01/29 02:20:35;;;;;;;51.13;23.07;;;;;;;;;;5044356;28;20209;-70
2021/01/29 02:23:18;;;;;;;48.43;23.03;;;;;;;;;;5047107;28;20271;-70
2021/01/29 02:26:12;;;;;;;51.17;23.63;;;;;;;;;;5037623;28;20671;-70
2021/01/29 02:29:11;;;;;;;50.40;22.70;;;;;;;;;;5047648;28;20259;-70
2021/01/29 02:32:01;;;;;;;56.03;23.63;;;;;;;;;;5036145;28;20186;-70
2021/01/29 02:35:14;;;;;;;57.07;24.10;;;;;;;;;;5045565;28;20276;-71
2021/01/29 02:37:58;;;;;;;58.03;24.63;;;;;;;;;;5035629;28;20249;-70
2021/01/29 02:40:44;;;;;;;64.27;25.87;;;;;;;;;;5048543;28;20205;-71
2021/01/29 02:43:38;;;;;;;68.33;25.37;;;;;;;;;;5042446;28;20551;-71
2021/01/29 02:46:14;;;;;;;59.50;24.47;;;;;;;;;;5052163;28;20198;-71
2021/01/29 02:48:54;;;;;;;62.23;24.63;;;;;;;;;;5032099;28;20177;-71
2021/01/29 02:51:38;;;;;;;71.40;25.17;;;;;;;;;;5036946;28;20189;-71
2021/01/29 02:54:21;;;;;;;64.07;25.00;;;;;;;;;;5044907;28;20193;-71
2021/01/29 02:56:53;;;;;;;63.73;25.43;;;;;;;;;;5049159;28;20228;-71
2021/01/29 02:59:51;;;;;;;67.67;24.80;;;;;;;;;;5043846;28;20545;-71
2021/01/29 03:02:26;;;;;;;62.23;24.60;;;;;;;;;;5035863;28;20197;-71
2021/01/29 03:04:59;;;;;;;67.30;26.30;;;;;;;;;;5043074;28;20205;-71
2021/01/29 03:07:32;;;;;;;71.03;25.80;;;;;;;;;;5046437;28;20177;-71
2021/01/29 03:10:36;;;;;;;72.30;26.00;;;;;;;;;;5041671;28;20205;-71
2021/01/29 03:13:16;;;;;;;71.07;25.53;;;;;;;;;;5037504;28;22333;-71
2021/01/29 03:15:50;;;;;;;73.17;26.07;;;;;;;;;;5045914;28;20176;-71
2021/01/29 03:18:24;;;;;;;64.93;25.23;;;;;;;;;;5038845;28;20512;-71
2021/01/29 03:20:59;;;;;;;65.60;25.77;;;;;;;;;;5046631;28;20200;-71
2021/01/29 03:23:37;;;;;;;65.00;25.30;;;;;;;;;;5035412;28;20224;-71
2021/01/29 03:26:08;;;;;;;69.87;25.10;;;;;;;;;;5045386;28;20907;-71
2021/01/29 03:28:41;;;;;;;74.00;26.07;;;;;;;;;;5039976;28;20201;-71
2021/01/29 03:31:10;;;;;;;77.37;25.43;;;;;;;;;;5045422;28;20180;-71
2021/01/29 03:33:38;;;;;;;72.27;26.70;;;;;;;;;;5045507;28;20718;-71
2021/01/29 03:36:07;;;;;;;68.87;24.30;;;;;;;;;;5038560;28;20225;-71
2021/01/29 03:38:42;;;;;;;64.40;24.23;;;;;;;;;;5047781;28;20182;-71
2021/01/29 03:41:28;;;;;;;67.90;24.53;;;;;;;;;;5035503;28;20290;-71
2021/01/29 03:44:22;;;;;;;67.23;24.57;;;;;;;;;;5042942;28;20189;-71
2021/01/29 03:47:06;;;;;;;69.33;24.00;;;;;;;;;;5040170;28;20189;-71
2021/01/29 03:49:55;;;;;;;58.93;23.43;;;;;;;;;;5040985;28;20272;-71
2021/01/29 03:52:24;;;;;;;58.60;22.17;;;;;;;;;;5044894;28;20182;-71
2021/01/29 03:55:29;;;;;;;56.00;22.77;;;;;;;;;;5036958;28;20173;-71
2021/01/29 03:58:01;;;;;;;55.50;21.10;;;;;;;;;;5045817;28;20548;-71
2021/01/29 04:00:46;;;;;;;55.23;22.03;;;;;;;;;;5041721;28;20638;-71
2021/01/29 04:03:29;;;;;;;57.90;21.23;;;;;;;;;;5047149;28;20271;-73
2021/01/29 04:06:07;;;;;;;51.27;20.53;;;;;;;;;;5040004;28;20213;-73
2021/01/29 04:09:06;;;;;;;47.43;20.30;;;;;;;;;;5047089;28;20195;-74
2021/01/29 04:11:39;;;;;;;45.30;19.00;;;;;;;;;;5040026;28;20193;-74
2021/01/29 04:14:10;;;;;;;50.63;19.40;;;;;;;;;;5040178;28;20239;-73
2021/01/29 04:16:41;;;;;;;37.50;18.17;;;;;;;;;;5028860;28;20200;-71
2021/01/29 04:19:17;;;;;;;43.73;18.90;;;;;;;;;;5044044;28;20188;-73
2021/01/29 04:22:00;;;;;;;47.20;19.20;;;;;;;;;;5037940;28;20223;-73
2021/01/29 04:24:32;;;;;;;43.57;17.57;;;;;;;;;;5045151;28;20210;-72
2021/01/29 04:27:05;;;;;;;39.93;17.83;;;;;;;;;;5029343;28;20200;-74
2021/01/29 04:29:41;;;;;;;41.33;18.27;;;;;;;;;;5044605;28;20189;-72
2021/01/29 04:32:10;;;;;;;40.03;18.43;;;;;;;;;;5033649;28;20632;-72
2021/01/29 04:34:39;;;;;;;43.27;17.93;;;;;;;;;;5041682;28;20280;-72
2021/01/29 04:37:13;;;;;;;38.17;17.70;;;;;;;;;;5038101;28;20312;-72
2021/01/29 04:39:42;;;;;;;39.67;16.90;;;;;;;;;;5037069;28;20232;-73
2021/01/29 04:42:08;;;;;;;35.90;17.00;;;;;;;;;;5037904;28;20633;-72
2021/01/29 04:45:11;;;;;;;37.60;16.77;;;;;;;;;;5040830;28;20196;-72
2021/01/29 04:47:46;;;;;;;37.47;17.13;;;;;;;;;;5037074;28;20648;-73
2021/01/29 04:50:30;;;;;;;41.03;17.20;;;;;;;;;;5042167;28;20670;-73
2021/01/29 04:53:12;;;;;;;43.87;18.50;;;;;;;;;;5026507;28;20546;-73
2021/01/29 04:56:07;;;;;;;40.90;18.17;;;;;;;;;;5044913;28;20656;-74
2021/01/29 04:59:12;;;;;;;42.67;17.77;;;;;;;;;;5035251;28;20233;-73
2021/01/29 05:01:55;;;;;;;34.73;17.60;;;;;;;;;;5035499;28;20228;-73
2021/01/29 05:04:52;;;;;;;38.33;17.00;;;;;;;;;;5040772;28;20248;-73
2021/01/29 05:07:42;;;;;;;41.63;17.20;;;;;;;;;;5048111;28;20660;-74
2021/01/29 05:10:28;;;;;;;41.63;16.87;;;;;;;;;;5040369;28;20276;-72
2021/01/29 05:13:30;;;;;;;39.63;17.53;;;;;;;;;;5049008;28;20555;-73
2021/01/29 05:16:01;;;;;;;35.87;17.37;;;;;;;;;;5040006;28;20180;-74
2021/01/29 05:19:04;;;;;;;36.30;16.60;;;;;;;;;;5049190;28;20185;-73
2021/01/29 05:21:50;;;;;;;46.20;17.57;;;;;;;;;;5049790;28;20302;-74
2021/01/29 05:24:38;;;;;;;41.90;17.73;;;;;;;;;;5040142;28;20186;-73
2021/01/29 05:27:28;;;;;;;40.63;16.60;;;;;;;;;;5046479;28;20193;-72
2021/01/29 05:30:05;;;;;;;37.23;17.40;;;;;;;;;;5038666;28;20652;-72
2021/01/29 05:33:07;;;;;;;37.90;16.93;;;;;;;;;;5064942;28;20266;-71
2021/01/29 05:35:56;;;;;;;35.43;16.67;;;;;;;;;;5042425;28;20299;-72
2021/01/29 05:38:59;;;;;;;35.47;16.70;;;;;;;;;;5047168;28;20194;-72
2021/01/29 05:41:49;;;;;;;39.70;16.63;;;;;;;;;;5040123;28;20217;-71
2021/01/29 05:44:45;;;;;;;37.27;15.93;;;;;;;;;;5047258;28;20279;-72
2021/01/29 05:47:46;;;;;;;37.53;16.00;;;;;;;;;;5032258;28;20201;-73
2021/01/29 05:50:31;;;;;;;33.57;15.30;;;;;;;;;;5048745;28;20190;-73
2021/01/29 05:53:18;;;;;;;30.20;15.07;;;;;;;;;;5043906;28;20188;-73
2021/01/29 05:55:53;;;;;;;38.63;16.37;;;;;;;;;;5067066;28;20172;-74
2021/01/29 05:58:48;;;;;;;35.87;15.37;;;;;;;;;;5048777;28;20188;-73
2021/01/29 06:01:59;;;;;;;37.27;16.27;;;;;;;;;;5038962;28;20283;-72
2021/01/29 06:04:56;;;;;;;28.37;15.03;;;;;;;;;;5047000;28;20276;-73
2021/01/29 06:07:34;;;;;;;32.33;14.00;;;;;;;;;;5040427;28;20539;-74
2021/01/29 06:10:08;;;;;;;27.60;13.47;;;;;;;;;;5046814;28;20169;-74
2021/01/29 06:12:59;;;;;;;30.73;14.53;;;;;;;;;;5035492;28;20585;-73
2021/01/29 06:15:55;;;;;;;29.33;15.10;;;;;;;;;;5035431;28;20202;-72
2021/01/29 06:18:26;;;;;;;27.50;14.43;;;;;;;;;;5039390;28;20196;-73
2021/01/29 06:21:28;;;;;;;31.37;13.37;;;;;;;;;;5046928;28;20213;-74
2021/01/29 06:24:21;;;;;;;26.10;13.23;;;;;;;;;;5035557;28;20549;-74
2021/01/29 06:27:05;;;;;;;26.37;13.50;;;;;;;;;;5048341;28;20591;-75
2021/01/29 06:30:10;;;;;;;29.00;13.77;;;;;;;;;;5038254;28;20204;-75
2021/01/29 06:33:04;;;;;;;27.97;12.90;;;;;;;;;;5042668;28;20680;-74
2021/01/29 06:35:34;;;;;;;27.23;12.77;;;;;;;;;;5043853;28;20264;-74
2021/01/29 06:38:09;;;;;;;28.47;13.30;;;;;;;;;;5038911;28;20225;-74
2021/01/29 06:40:57;;;;;;;24.67;13.13;;;;;;;;;;5061460;28;20201;-74
2021/01/29 06:43:38;;;;;;;22.10;12.47;;;;;;;;;;5038106;28;20190;-74
2021/01/29 06:46:25;;;;;;;23.17;12.53;;;;;;;;;;5043633;28;20196;-74
2021/01/29 06:49:12;;;;;;;25.43;12.50;;;;;;;;;;5033714;28;20224;-74
2021/01/29 06:52:15;;;;;;;26.90;12.30;;;;;;;;;;5051416;28;20188;-73
2021/01/29 06:54:50;;;;;;;25.73;12.13;;;;;;;;;;5037770;28;20636;-75
2021/01/29 06:57:53;;;;;;;26.13;12.93;;;;;;;;;;5045942;28;20196;-73
2021/01/29 07:00:34;;;;;;;24.60;12.97;;;;;;;;;;5055151;28;20209;-74
2021/01/29 07:03:28;;;;;;;22.97;11.90;;;;;;;;;;5045979;28;20185;-74
2021/01/29 07:06:07;;;;;;;23.37;12.17;;;;;;;;;;5036157;28;21426;-74
2021/01/29 07:09:10;;;;;;;21.07;12.17;;;;;;;;;;5042618;28;20182;-74
2021/01/29 07:12:02;;;;;;;27.67;12.70;;;;;;;;;;5033140;28;20266;-73
2021/01/29 07:15:04;;;;;;;27.67;12.80;;;;;;;;;;5045458;28;20255;-73
2021/01/29 07:17:52;;;;;;;25.67;12.77;;;;;;;;;;5045649;28;20510;-73
2021/01/29 07:20:43;;;;;;;30.93;12.93;;;;;;;;;;5058687;28;20201;-73
2021/01/29 07:23:34;;;;;;;32.70;13.23;;;;;;;;;;5042269;28;20189;-73
2021/01/29 07:26:23;;;;;;;22.27;12.33;;;;;;;;;;5036898;28;20185;-74
2021/01/29 07:29:07;;;;;;;25.30;13.00;;;;;;;;;;5058054;28;20256;-74
2021/01/29 07:31:56;;;;;;;33.93;13.77;;;;;;;;;;5035336;28;20272;-74
2021/01/29 07:35:03;;;;;;;32.87;14.43;;;;;;;;;;5043439;28;20185;-73
2021/01/29 07:37:31;;;;;;;31.63;13.90;;;;;;;;;;5033088;28;20315;-74
2021/01/29 07:40:38;;;;;;;39.87;15.30;;;;;;;;;;5046846;28;20196;-74
2021/01/29 07:43:23;;;;;;;30.13;14.33;;;;;;;;;;5035837;28;20209;-74
2021/01/29 07:46:17;;;;;;;44.00;15.53;;;;;;;;;;5043521;28;20204;-74
2021/01/29 07:48:57;;;;;;;32.80;15.20;;;;;;;;;;5038256;28;20625;-72
2021/01/29 07:51:44;;;;;;;30.17;14.17;;;;;;;;;;5053994;28;20264;-72
2021/01/29 07:54:48;;;;;;;37.57;16.10;;;;;;;;;;5048527;28;20659;-72
2021/01/29 07:57:24;;;;;;;38.83;16.07;;;;;;;;;;5032714;28;20194;-72
2021/01/29 08:00:20;;;;;;;43.13;16.57;;;;;;;;;;5040459;28;20204;-71
2021/01/29 08:03:11;;;;;;;36.40;17.30;;;;;;;;;;5036592;28;20536;-73
2021/01/29 08:05:42;;;;;;;35.17;17.87;;;;;;;;;;5045146;28;20197;-73
2021/01/29 08:08:13;;;;;;;45.10;21.10;;;;;;;;;;5034891;28;20551;-73
2021/01/29 08:10:42;;;;;;;58.47;22.67;;;;;;;;;;5046024;28;20180;-73
2021/01/29 08:13:35;;;;;;;54.50;22.30;;;;;;;;;;5034287;28;20715;-72
2021/01/29 08:16:19;;;;;;;52.57;21.97;;;;;;;;;;5046014;28;20197;-71
2021/01/29 08:19:10;;;;;;;56.20;23.10;;;;;;;;;;5035706;28;20308;-71
2021/01/29 08:21:48;;;;;;;50.17;21.03;;;;;;;;;;5043268;28;20217;-72
2021/01/29 08:24:31;;;;;;;55.17;21.50;;;;;;;;;;5036952;28;20181;-73
2021/01/29 08:27:18;;;;;;;49.97;20.13;;;;;;;;;;5042965;28;20189;-73
2021/01/29 08:30:09;;;;;;;37.10;17.13;;;;;;;;;;5034414;28;20181;-73
2021/01/29 08:32:52;;;;;;;31.67;14.97;;;;;;;;;;5044843;28;20268;-74
2021/01/29 08:35:29;;;;;;;30.47;13.40;;;;;;;;;;5033921;28;20257;-73
2021/01/29 08:38:04;;;;;;;22.27;11.27;;;;;;;;;;5044822;28;20722;-73
2021/01/29 08:40:40;;;;;;;22.07;11.00;;;;;;;;;;5039331;28;20626;-74
2021/01/29 08:43:41;;;;;;;19.27;10.00;;;;;;;;;;5050568;28;20196;-74
2021/01/29 08:46:49;;;;;;;18.77;9.73;;;;;;;;;;5034107;28;20755;-74
2021/01/29 08:49:36;;;;;;;14.60;8.63;;;;;;;;;;5049027;28;20197;-74
2021/01/29 08:52:13;;;;;;;16.27;8.93;;;;;;;;;;5047313;28;20192;-73
2021/01/29 08:55:00;;;;;;;13.80;7.83;;;;;;;;;;5042866;28;20303;-72
2021/01/29 08:57:45;;;;;;;13.03;7.73;;;;;;;;;;5050310;28;20246;-72
2021/01/29 09:00:24;;;;;;;14.50;7.50;;;;;;;;;;5039296;28;20190;-71
2021/01/29 09:03:11;;;;;;;13.10;7.57;;;;;;;;;;5046215;28;20197;-73
2021/01/29 09:05:42;;;;;;;11.23;6.60;;;;;;;;;;5038462;28;20577;-72
2021/01/29 09:08:09;;;;;;;10.33;6.20;;;;;;;;;;5045465;28;20188;-71
2021/01/29 09:11:17;;;;;;;10.30;5.90;;;;;;;;;;5047590;28;20182;-73
2021/01/29 09:13:43;;;;;;;10.32;5.70;;;;;;;;;;5045434;28;20196;-71
2021/01/29 09:16:12;;;;;;;8.60;5.27;;;;;;;;;;5041881;28;20178;-72
2021/01/29 09:18:49;;;;;;;9.77;5.73;;;;;;;;;;5044522;28;20269;-72
2021/01/29 09:21:18;;;;;;;8.90;4.90;;;;;;;;;;5041458;28;20290;-73
2021/01/29 09:23:56;;;;;;;8.33;4.40;;;;;;;;;;5045747;28;20185;-73
2021/01/29 09:26:53;;;;;;;11.67;3.90;;;;;;;;;;5047761;28;20213;-74
2021/01/29 09:29:25;;;;;;;11.07;3.53;;;;;;;;;;5047282;28;20629;-73
2021/01/29 09:32:04;;;;;;;12.50;3.23;;;;;;;;;;5036720;28;20639;-73
2021/01/29 09:34:36;;;;;;;6.93;3.47;;;;;;;;;;5063273;28;20189;-73
2021/01/29 09:37:07;;;;;;;8.53;4.00;;;;;;;;;;5039876;28;20357;-72
2021/01/29 09:39:47;;;;;;;8.33;3.37;;;;;;;;;;5046182;28;20660;-71
2021/01/29 09:42:21;;;;;;;5.47;2.53;;;;;;;;;;5046053;28;20500;-71
2021/01/29 09:44:57;;;;;;;6.63;3.10;;;;;;;;;;5043298;28;20185;-71
2021/01/29 09:47:25;;;;;;;6.57;3.43;;;;;;;;;;5048394;28;20185;-71
2021/01/29 09:50:00;;;;;;;8.35;3.83;;;;;;;;;;5036779;28;20239;-70
2021/01/29 09:53:05;;;;;;;8.02;4.32;;;;;;;;;;5046144;28;20187;-70
2021/01/29 09:55:54;;;;;;;11.45;4.40;;;;;;;;;;5045016;28;20539;-71
2021/01/29 09:58:34;;;;;;;12.18;4.85;;;;;;;;;;5040198;28;20251;-71
2021/01/29 10:01:16;;;;;;;14.30;5.28;;;;;;;;;;5045995;28;20248;-71
2021/01/29 10:04:05;;;;;;;11.82;5.65;;;;;;;;;;5037350;28;20197;-70
2021/01/29 10:06:35;;;;;;;12.87;6.90;;;;;;;;;;5048064;28;20245;-70
2021/01/29 10:09:09;;;;;;;20.92;7.93;;;;;;;;;;5035877;28;20234;-70
2021/01/29 10:11:47;;;;;;;18.23;7.32;;;;;;;;;;5046165;28;20174;-70
2021/01/29 10:14:21;;;;;;;19.83;8.30;;;;;;;;;;5038946;28;20181;-70
2021/01/29 10:17:17;;;;;;;21.60;7.57;;;;;;;;;;5048885;28;20236;-70
2021/01/29 10:19:50;;;;;;;22.58;8.40;;;;;;;;;;5035995;28;20546;-70
2021/01/29 10:22:37;;;;;;;21.23;9.07;;;;;;;;;;5044036;28;20189;-71
2021/01/29 10:25:34;;;;;;;27.58;8.27;;;;;;;;;;5037665;28;20188;-70
2021/01/29 10:28:27;;;;;;;25.05;8.10;;;;;;;;;;5063876;28;20239;-70
2021/01/29 10:31:01;;;;;;;22.02;7.43;;;;;;;;;;5038732;28;20189;-70
2021/01/29 10:33:32;;;;;;;32.90;8.55;;;;;;;;;;5044608;28;20560;-70
2021/01/29 10:36:08;;;;;;;31.58;8.88;;;;;;;;;;5038354;28;20221;-70
2021/01/29 10:38:46;;;;;;;32.25;7.68;;;;;;;;;;5048757;28;20679;-70
2021/01/29 10:41:24;;;;;;;28.63;7.72;;;;;;;;;;5030640;28;20201;-70
2021/01/29 10:44:00;;;;;;;28.25;8.32;;;;;;;;;;5039439;28;20271;-70
2021/01/29 10:46:53;;;;;;;28.23;7.93;;;;;;;;;;5035010;28;20640;-70
2021/01/29 10:49:38;;;;;;;27.83;7.07;;;;;;;;;;5043462;28;20186;-70
2021/01/29 10:52:37;;;;;;;26.67;6.95;;;;;;;;;;5033517;28;20338;-70
2021/01/29 10:55:12;;;;;;;34.88;6.70;;;;;;;;;;5044605;28;20668;-70
2021/01/29 10:57:55;;;;;;;36.33;6.45;;;;;;;;;;5037986;28;20177;-70
2021/01/29 11:00:25;;;;;;;32.40;6.55;;;;;;;;;;5043574;28;20212;-69
2021/01/29 11:03:07;;;;;;;37.08;6.68;;;;;;;;;;5035517;28;20196;-69
2021/01/29 11:05:36;;;;;;;30.38;7.22;;;;;;;;;;5042278;28;20208;-69
2021/01/29 11:08:24;;;;;;;33.42;6.78;;;;;;;;;;5038238;28;20234;-69
2021/01/29 11:11:01;;;;;;;36.03;7.38;;;;;;;;;;5046257;28;20204;-69
2021/01/29 11:13:55;;;;;;;38.08;5.30;;;;;;;;;;5038901;28;20192;-69
2021/01/29 11:16:42;;;;;;;34.57;6.00;;;;;;;;;;5045367;28;20186;-69
2021/01/29 11:19:16;;;;;;;31.92;5.78;;;;;;;;;;4334980;28;10000725;-69
2021/01/29 11:21:52;;;;;;;28.43;5.23;;;;;;;;;;5041876;28;20213;-69
2021/01/29 11:24:31;;;;;;;27.90;5.22;;;;;;;;;;5033835;28;20197;-69
2021/01/29 11:27:11;;;;;;;29.63;6.10;;;;;;;;;;5041692;28;20184;-69
2021/01/29 11:29:54;;;;;;;29.98;4.78;;;;;;;;;;5034305;28;20220;-69
2021/01/29 11:32:35;;;;;;;30.67;4.43;;;;;;;;;;5042919;28;20212;-69
2021/01/29 11:35:03;;;;;;;27.30;6.00;;;;;;;;;;5036911;28;20841;-70
2021/01/29 11:37:35;;;;;;;28.98;4.60;;;;;;;;;;5042408;28;20240;-69
2021/01/29 11:40:10;;;;;;;32.63;5.13;;;;;;;;;;5033744;28;20244;-69
2021/01/29 11:42:53;;;;;;;28.23;4.38;;;;;;;;;;5043244;28;20238;-69
2021/01/29 11:45:23;;;;;;;32.38;4.75;;;;;;;;;;5030138;28;20216;-69
2021/01/29 11:47:48;;;;;;;32.70;4.45;;;;;;;;;;5041446;28;23584;-69
2021/01/29 11:50:27;;;;;;;37.00;5.32;;;;;;;;;;5034642;28;20188;-69
2021/01/29 11:53:00;;;;;;;30.33;5.15;;;;;;;;;;5042973;28;20618;-69
2021/01/29 11:55:39;;;;;;;34.15;5.28;;;;;;;;;;5032937;28;20197;-70
2021/01/29 11:58:23;;;;;;;29.05;4.82;;;;;;;;;;5041129;28;20186;-69
2021/01/29 12:01:19;;;;;;;33.42;5.90;;;;;;;;;;5032967;28;20210;-69
2021/01/29 12:03:54;;;;;;;25.05;4.55;;;;;;;;;;5038948;28;20625;-70
2021/01/29 12:06:23;;;;;;;32.50;4.43;;;;;;;;;;5032822;28;20609;-69
2021/01/29 12:09:09;;;;;;;33.63;4.88;;;;;;;;;;5042301;28;20192;-70
2021/01/29 12:11:46;;;;;;;36.10;4.63;;;;;;;;;;5031848;28;20191;-70
2021/01/29 12:14:32;;;;;;;37.35;5.03;;;;;;;;;;5042210;28;20200;-70
2021/01/29 12:17:04;;;;;;;26.98;3.95;;;;;;;;;;5032823;28;20204;-69
2021/01/29 12:19:41;;;;;;;30.63;4.38;;;;;;;;;;5038656;28;20196;-69
2021/01/29 12:22:39;;;;;;;33.20;4.60;;;;;;;;;;5034008;28;20203;-69
2021/01/29 12:25:32;;;;;;;33.90;5.00;;;;;;;;;;5041332;28;20242;-69
2021/01/29 12:28:16;;;;;;;36.30;5.25;;;;;;;;;;5042540;28;20679;-69
2021/01/29 12:31:07;;;;;;;25.05;3.50;;;;;;;;;;5027971;28;20192;-70
2021/01/29 12:33:46;;;;;;;25.23;3.75;;;;;;;;;;5042621;28;20660;-67
2021/01/29 12:36:14;;;;;;;28.80;4.68;;;;;;;;;;5045903;28;20220;-69
2021/01/29 12:39:04;;;;;;;23.25;3.88;;;;;;;;;;5043305;28;20189;-68
2021/01/29 12:41:41;;;;;;;31.50;3.70;;;;;;;;;;5030537;28;20559;-68
2021/01/29 12:44:10;;;;;;;28.30;4.22;;;;;;;;;;5041221;28;20193;-68
2021/01/29 12:46:44;;;;;;;25.20;4.20;;;;;;;;;;5031999;28;20197;-68
2021/01/29 12:49:19;;;;;;;28.50;4.07;;;;;;;;;;5033904;28;20194;-67
2021/01/29 12:51:54;;;;;;;24.73;3.92;;;;;;;;;;5027716;28;20270;-68
2021/01/29 12:54:54;;;;;;;23.10;3.65;;;;;;;;;;5043688;28;20186;-68
2021/01/29 12:57:23;;;;;;;32.65;4.35;;;;;;;;;;5032797;28;20722;-68
2021/01/29 13:00:12;;;;;;;31.70;3.92;;;;;;;;;;5041982;28;20664;-68
2021/01/29 13:02:52;;;;;;;30.42;3.95;;;;;;;;;;5035362;28;20648;-68
2021/01/29 13:06:12;;;;;;;21.33;3.63;;;;;;;;;;5041867;28;20205;-68
2021/01/29 13:08:58;;;;;;;27.90;3.83;;;;;;;;;;5005111;28;20193;-68
2021/01/29 13:11:35;;;;;;;24.77;4.30;;;;;;;;;;5041523;28;20185;-68
2021/01/29 13:14:36;;;;;;;31.27;5.20;;;;;;;;;;5030655;28;20198;-68
2021/01/29 13:17:19;;;;;;;27.98;3.95;;;;;;;;;;5045235;28;20193;-68
2021/01/29 13:19:47;;;;;;;22.37;4.07;;;;;;;;;;5033337;28;20185;-68
2021/01/29 13:22:15;;;;;;;27.58;3.22;;;;;;;;;;5043599;28;20648;-68
2021/01/29 13:24:41;;;;;;;27.75;3.63;;;;;;;;;;5034314;28;20235;-68
2021/01/29 13:27:12;;;;;;;23.00;4.07;;;;;;;;;;5047798;28;20721;-68
2021/01/29 13:29:37;;;;;;;33.53;6.00;;;;;;;;;;5037981;28;20189;-68
2021/01/29 13:32:19;;;;;;;27.15;4.07;;;;;;;;;;5047858;28;20330;-68
2021/01/29 13:34:45;;;;;;;23.73;3.47;;;;;;;;;;5036118;28;20346;-68
2021/01/29 13:37:20;;;;;;;27.33;4.32;;;;;;;;;;5044727;28;20288;-68
2021/01/29 13:39:46;;;;;;;21.88;4.10;;;;;;;;;;5036787;28;20184;-68
2021/01/29 13:42:11;;;;;;;19.33;3.38;;;;;;;;;;5047761;28;20184;-68
2021/01/29 13:45:02;;;;;;;29.65;4.07;;;;;;;;;;5036121;28;20364;-68
2021/01/29 13:47:32;;;;;;;26.40;6.75;;;;;;;;;;5048975;28;20193;-68
2021/01/29 13:50:14;;;;;;;33.95;7.13;;;;;;;;;;5035973;28;20483;-68
2021/01/29 13:52:48;;;;;;;24.10;5.20;;;;;;;;;;5044594;28;20205;-68
2021/01/29 13:55:53;;;;;;;25.23;4.03;;;;;;;;;;5037878;28;20189;-68
2021/01/29 13:58:41;;;;;;;25.45;4.75;;;;;;;;;;5041234;28;20672;-68
2021/01/29 14:01:12;;;;;;;21.85;4.20;;;;;;;;;;5033428;28;20221;-69
2021/01/29 14:03:41;;;;;;;19.60;3.30;;;;;;;;;;5044664;28;20220;-69
2021/01/29 14:06:08;;;;;;;17.98;3.20;;;;;;;;;;5036448;28;20209;-68
2021/01/29 14:08:36;;;;;;;20.02;3.42;;;;;;;;;;5043899;28;20181;-68
2021/01/29 14:11:09;;;;;;;19.83;3.13;;;;;;;;;;5036132;28;20185;-68
2021/01/29 14:13:42;;;;;;;20.98;2.90;;;;;;;;;;5044300;28;20197;-68
2021/01/29 14:16:32;;;;;;;23.50;3.72;;;;;;;;;;5036014;28;20177;-68
2021/01/29 14:19:17;;;;;;;19.17;3.28;;;;;;;;;;5044749;28;20667;-68
2021/01/29 14:21:42;;;;;;;20.45;4.13;;;;;;;;;;5035974;28;20707;-68
2021/01/29 14:24:22;;;;;;;27.00;3.58;;;;;;;;;;5046846;28;20189;-68
2021/01/29 14:27:00;;;;;;;21.27;3.05;;;;;;;;;;5037850;28;20202;-68
2021/01/29 14:30:01;;;;;;;19.30;2.80;;;;;;;;;;5047386;28;20702;-68
2021/01/29 14:32:35;;;;;;;19.35;3.40;;;;;;;;;;5033679;28;20300;-68
2021/01/29 14:35:05;;;;;;;29.27;5.00;;;;;;;;;;5044605;28;20193;-68
2021/01/29 14:37:43;;;;;;;19.20;2.65;;;;;;;;;;5037868;28;20221;-68
2021/01/29 14:40:26;;;;;;;22.55;3.70;;;;;;;;;;5044708;28;20211;-68
2021/01/29 14:43:05;;;;;;;17.42;2.85;;;;;;;;;;5043254;28;20222;-69
2021/01/29 14:45:49;;;;;;;17.40;3.38;;;;;;;;;;5041803;28;20579;-68
2021/01/29 14:48:53;;;;;;;22.65;3.47;;;;;;;;;;5038772;28;20185;-68
2021/01/29 14:51:25;;;;;;;31.15;3.90;;;;;;;;;;5045076;28;20192;-68
2021/01/29 14:54:01;;;;;;;22.25;3.03;;;;;;;;;;5038787;28;20284;-68
2021/01/29 14:57:11;;;;;;;17.33;2.72;;;;;;;;;;5044662;28;20635;-68
2021/01/29 14:59:43;;;;;;;24.70;3.67;;;;;;;;;;5034320;28;20649;-67
2021/01/29 15:02:13;;;;;;;26.08;3.17;;;;;;;;;;5052707;28;20304;-67
2021/01/29 15:04:40;;;;;;;22.85;3.50;;;;;;;;;;5033734;28;20244;-67
2021/01/29 15:07:32;;;;;;;26.80;3.55;;;;;;;;;;3989785;28;10000653;-67
2021/01/29 15:10:15;;;;;;;20.52;3.50;;;;;;;;;;5032228;28;20247;-67
2021/01/29 15:12:43;;;;;;;24.15;3.60;;;;;;;;;;5035246;28;20276;-68
2021/01/29 15:15:20;;;;;;;19.13;2.92;;;;;;;;;;5033682;28;20629;-69
2021/01/29 15:17:59;;;;;;;21.08;3.45;;;;;;;;;;5042009;28;20213;-67
2021/01/29 15:20:38;;;;;;;26.00;3.50;;;;;;;;;;5028428;28;20449;-67
2021/01/29 15:23:26;;;;;;;27.20;3.55;;;;;;;;;;5034850;28;20201;-67
2021/01/29 15:25:52;;;;;;;24.45;4.35;;;;;;;;;;5032101;28;20189;-68
2021/01/29 15:28:22;;;;;;;18.85;4.82;;;;;;;;;;5041745;28;20665;-67
2021/01/29 15:30:50;;;;;;;21.10;3.28;;;;;;;;;;5031191;28;20182;-67
2021/01/29 15:33:27;;;;;;;26.75;3.72;;;;;;;;;;5041624;28;20212;-68
2021/01/29 15:36:13;;;;;;;20.88;3.65;;;;;;;;;;5032443;28;20189;-68
2021/01/29 15:38:46;;;;;;;20.80;4.05;;;;;;;;;;5038332;28;20196;-68